sensor_id;sensor_type;location;lat;lon;timestamp;P1;durP1;ratioP1;P2;durP2;ratioP2
37349;SDS011;23231;52.358;4.926;2023-10-31T00:00:18;14.48;;;6.70;;
37349;SDS011;23231;52.358;4.926;2023-10-31T00:05:19;17.13;;;6.57;;
37349;SDS011;23231;52.358;4.926;2023-10-31T00:10:19;17.88;;;7.07;;
37349;SDS011;23231;52.358;4.926;2023-10-31T00:15:19;16.08;;;7.95;;
37349;SDS011;23231;52.358;4.926;2023-10-31T00:20:30;14.82;;;7.35;;
37349;SDS011;23231;52.358;4.926;2023-10-31T00:25:38;15.48;;;7.75;;
37349;SDS011;23231;52.358;4.926;2023-10-31T00:30:50;18.48;;;9.15;;
37349;SDS011;23231;52.358;4.926;2023-10-31T00:35:56;18.83;;;9.40;;
37349;SDS011;23231;52.358;4.926;2023-10-31T00:40:59;21.05;;;9.98;;
37349;SDS011;23231;52.358;4.926;2023-10-31T00:46:10;21.13;;;9.85;;
37349;SDS011;23231;52.358;4.926;2023-10-31T00:51:15;24.70;;;10.63;;
37349;SDS011;23231;52.358;4.926;2023-10-31T00:56:28;22.75;;;9.68;;
37349;SDS011;23231;52.358;4.926;2023-10-31T01:01:34;20.05;;;8.25;;
37349;SDS011;23231;52.358;4.926;2023-10-31T01:06:43;24.63;;;7.80;;
37349;SDS011;23231;52.358;4.926;2023-10-31T01:11:50;15.55;;;6.10;;
37349;SDS011;23231;52.358;4.926;2023-10-31T01:16:56;16.60;;;6.95;;
37349;SDS011;23231;52.358;4.926;2023-10-31T01:21:58;16.10;;;6.28;;
37349;SDS011;23231;52.358;4.926;2023-10-31T01:27:02;16.00;;;6.97;;
37349;SDS011;23231;52.358;4.926;2023-10-31T01:32:03;18.95;;;6.82;;
37349;SDS011;23231;52.358;4.926;2023-10-31T01:37:07;19.30;;;6.32;;
37349;SDS011;23231;52.358;4.926;2023-10-31T01:42:14;19.15;;;6.22;;
37349;SDS011;23231;52.358;4.926;2023-10-31T01:47:19;13.07;;;4.43;;
37349;SDS011;23231;52.358;4.926;2023-10-31T01:52:32;13.95;;;4.20;;
37349;SDS011;23231;52.358;4.926;2023-10-31T01:57:35;9.82;;;3.13;;
37349;SDS011;23231;52.358;4.926;2023-10-31T02:02:37;12.13;;;2.97;;
37349;SDS011;23231;52.358;4.926;2023-10-31T02:07:38;6.88;;;2.45;;
37349;SDS011;23231;52.358;4.926;2023-10-31T02:12:41;10.15;;;3.03;;
37349;SDS011;23231;52.358;4.926;2023-10-31T02:17:42;11.02;;;2.88;;
37349;SDS011;23231;52.358;4.926;2023-10-31T02:22:44;8.75;;;2.30;;
37349;SDS011;23231;52.358;4.926;2023-10-31T02:27:47;11.38;;;2.47;;
37349;SDS011;23231;52.358;4.926;2023-10-31T02:32:48;4.78;;;1.80;;
37349;SDS011;23231;52.358;4.926;2023-10-31T02:37:54;6.18;;;2.03;;
37349;SDS011;23231;52.358;4.926;2023-10-31T02:42:56;10.30;;;1.65;;
37349;SDS011;23231;52.358;4.926;2023-10-31T02:47:59;7.57;;;1.50;;
37349;SDS011;23231;52.358;4.926;2023-10-31T02:53:01;3.55;;;1.27;;
37349;SDS011;23231;52.358;4.926;2023-10-31T02:58:08;6.57;;;1.50;;
37349;SDS011;23231;52.358;4.926;2023-10-31T03:03:11;4.32;;;1.20;;
37349;SDS011;23231;52.358;4.926;2023-10-31T03:08:12;6.05;;;1.20;;
37349;SDS011;23231;52.358;4.926;2023-10-31T03:13:13;4.30;;;1.20;;
37349;SDS011;23231;52.358;4.926;2023-10-31T03:18:13;1.83;;;1.00;;
37349;SDS011;23231;52.358;4.926;2023-10-31T03:23:19;2.90;;;0.93;;
37349;SDS011;23231;52.358;4.926;2023-10-31T03:28:20;4.72;;;1.13;;
37349;SDS011;23231;52.358;4.926;2023-10-31T03:33:23;4.88;;;0.90;;
37349;SDS011;23231;52.358;4.926;2023-10-31T03:38:33;5.15;;;1.00;;
37349;SDS011;23231;52.358;4.926;2023-10-31T03:43:39;3.33;;;0.80;;
37349;SDS011;23231;52.358;4.926;2023-10-31T03:48:42;3.22;;;1.02;;
37349;SDS011;23231;52.358;4.926;2023-10-31T03:53:53;6.57;;;1.40;;
37349;SDS011;23231;52.358;4.926;2023-10-31T03:59:02;2.92;;;0.90;;
37349;SDS011;23231;52.358;4.926;2023-10-31T04:04:04;3.42;;;1.10;;
37349;SDS011;23231;52.358;4.926;2023-10-31T04:09:08;3.80;;;1.00;;
37349;SDS011;23231;52.358;4.926;2023-10-31T04:14:15;4.72;;;1.48;;
37349;SDS011;23231;52.358;4.926;2023-10-31T04:19:19;4.03;;;0.90;;
37349;SDS011;23231;52.358;4.926;2023-10-31T04:24:22;8.07;;;1.48;;
37349;SDS011;23231;52.358;4.926;2023-10-31T04:29:25;3.13;;;0.80;;
37349;SDS011;23231;52.358;4.926;2023-10-31T04:34:34;5.55;;;0.90;;
37349;SDS011;23231;52.358;4.926;2023-10-31T04:39:44;4.60;;;0.82;;
37349;SDS011;23231;52.358;4.926;2023-10-31T04:44:49;2.95;;;0.77;;
37349;SDS011;23231;52.358;4.926;2023-10-31T04:49:49;4.35;;;0.88;;
37349;SDS011;23231;52.358;4.926;2023-10-31T04:54:51;4.32;;;1.05;;
37349;SDS011;23231;52.358;4.926;2023-10-31T04:59:52;7.20;;;1.02;;
37349;SDS011;23231;52.358;4.926;2023-10-31T05:05:01;4.53;;;1.00;;
37349;SDS011;23231;52.358;4.926;2023-10-31T05:10:11;4.72;;;0.77;;
37349;SDS011;23231;52.358;4.926;2023-10-31T05:15:19;4.13;;;0.80;;
37349;SDS011;23231;52.358;4.926;2023-10-31T05:20:24;4.78;;;1.23;;
37349;SDS011;23231;52.358;4.926;2023-10-31T05:25:34;3.33;;;1.20;;
37349;SDS011;23231;52.358;4.926;2023-10-31T05:30:41;7.18;;;1.13;;
37349;SDS011;23231;52.358;4.926;2023-10-31T05:35:42;5.05;;;1.05;;
37349;SDS011;23231;52.358;4.926;2023-10-31T05:40:53;4.13;;;0.90;;
37349;SDS011;23231;52.358;4.926;2023-10-31T05:45:54;7.80;;;1.35;;
37349;SDS011;23231;52.358;4.926;2023-10-31T05:50:59;5.72;;;1.30;;
37349;SDS011;23231;52.358;4.926;2023-10-31T05:55:59;6.18;;;1.60;;
37349;SDS011;23231;52.358;4.926;2023-10-31T06:01:00;6.13;;;1.42;;
37349;SDS011;23231;52.358;4.926;2023-10-31T06:06:02;3.20;;;1.23;;
37349;SDS011;23231;52.358;4.926;2023-10-31T06:11:06;6.75;;;1.42;;
37349;SDS011;23231;52.358;4.926;2023-10-31T06:16:12;6.90;;;1.42;;
37349;SDS011;23231;52.358;4.926;2023-10-31T06:21:23;6.60;;;1.35;;
37349;SDS011;23231;52.358;4.926;2023-10-31T06:26:29;4.13;;;1.40;;
37349;SDS011;23231;52.358;4.926;2023-10-31T06:31:34;5.53;;;1.40;;
37349;SDS011;23231;52.358;4.926;2023-10-31T06:36:35;8.52;;;1.48;;
37349;SDS011;23231;52.358;4.926;2023-10-31T06:41:39;6.47;;;1.67;;
37349;SDS011;23231;52.358;4.926;2023-10-31T06:46:41;12.65;;;2.40;;
37349;SDS011;23231;52.358;4.926;2023-10-31T06:51:43;10.80;;;2.75;;
37349;SDS011;23231;52.358;4.926;2023-10-31T06:56:45;12.00;;;4.25;;
37349;SDS011;23231;52.358;4.926;2023-10-31T07:01:47;14.90;;;6.57;;
37349;SDS011;23231;52.358;4.926;2023-10-31T07:06:47;14.20;;;7.78;;
37349;SDS011;23231;52.358;4.926;2023-10-31T07:12:00;17.35;;;10.57;;
37349;SDS011;23231;52.358;4.926;2023-10-31T07:17:04;24.05;;;13.82;;
37349;SDS011;23231;52.358;4.926;2023-10-31T07:22:05;20.70;;;11.82;;
37349;SDS011;23231;52.358;4.926;2023-10-31T07:27:13;22.33;;;12.35;;
37349;SDS011;23231;52.358;4.926;2023-10-31T07:32:16;22.80;;;12.30;;
37349;SDS011;23231;52.358;4.926;2023-10-31T07:37:30;21.13;;;11.13;;
37349;SDS011;23231;52.358;4.926;2023-10-31T07:42:42;21.33;;;11.15;;
37349;SDS011;23231;52.358;4.926;2023-10-31T07:47:44;28.20;;;11.50;;
37349;SDS011;23231;52.358;4.926;2023-10-31T07:52:49;25.57;;;12.43;;
37349;SDS011;23231;52.358;4.926;2023-10-31T07:57:52;21.35;;;10.05;;
37349;SDS011;23231;52.358;4.926;2023-10-31T08:02:54;16.90;;;9.02;;
37349;SDS011;23231;52.358;4.926;2023-10-31T08:07:55;15.13;;;7.07;;
37349;SDS011;23231;52.358;4.926;2023-10-31T08:12:55;17.23;;;7.80;;
37349;SDS011;23231;52.358;4.926;2023-10-31T08:17:56;18.42;;;7.38;;
37349;SDS011;23231;52.358;4.926;2023-10-31T08:22:57;12.20;;;6.32;;
37349;SDS011;23231;52.358;4.926;2023-10-31T08:27:58;14.68;;;5.82;;
37349;SDS011;23231;52.358;4.926;2023-10-31T08:32:59;8.60;;;4.68;;
37349;SDS011;23231;52.358;4.926;2023-10-31T08:38:01;14.10;;;4.85;;
37349;SDS011;23231;52.358;4.926;2023-10-31T08:43:01;10.95;;;4.85;;
37349;SDS011;23231;52.358;4.926;2023-10-31T08:48:04;9.20;;;4.40;;
37349;SDS011;23231;52.358;4.926;2023-10-31T08:53:05;15.80;;;4.15;;
37349;SDS011;23231;52.358;4.926;2023-10-31T08:58:06;9.13;;;3.55;;
37349;SDS011;23231;52.358;4.926;2023-10-31T09:03:08;10.32;;;4.05;;
37349;SDS011;23231;52.358;4.926;2023-10-31T09:08:11;12.60;;;4.22;;
37349;SDS011;23231;52.358;4.926;2023-10-31T09:13:14;9.88;;;2.85;;
37349;SDS011;23231;52.358;4.926;2023-10-31T09:18:15;8.77;;;3.50;;
37349;SDS011;23231;52.358;4.926;2023-10-31T09:23:17;11.35;;;3.42;;
37349;SDS011;23231;52.358;4.926;2023-10-31T09:28:19;7.72;;;3.20;;
37349;SDS011;23231;52.358;4.926;2023-10-31T09:33:20;11.85;;;2.85;;
37349;SDS011;23231;52.358;4.926;2023-10-31T09:38:20;8.80;;;3.13;;
37349;SDS011;23231;52.358;4.926;2023-10-31T09:43:20;7.65;;;2.67;;
37349;SDS011;23231;52.358;4.926;2023-10-31T09:48:21;9.90;;;3.03;;
37349;SDS011;23231;52.358;4.926;2023-10-31T09:53:21;8.15;;;2.75;;
37349;SDS011;23231;52.358;4.926;2023-10-31T09:58:24;8.52;;;2.85;;
37349;SDS011;23231;52.358;4.926;2023-10-31T10:03:24;8.00;;;2.72;;
37349;SDS011;23231;52.358;4.926;2023-10-31T10:08:25;9.85;;;2.75;;
37349;SDS011;23231;52.358;4.926;2023-10-31T10:13:25;7.22;;;2.30;;
37349;SDS011;23231;52.358;4.926;2023-10-31T10:18:29;6.65;;;1.90;;
37349;SDS011;23231;52.358;4.926;2023-10-31T10:23:35;7.25;;;2.90;;
37349;SDS011;23231;52.358;4.926;2023-10-31T10:28:37;6.10;;;2.85;;
37349;SDS011;23231;52.358;4.926;2023-10-31T10:33:37;9.07;;;3.15;;
37349;SDS011;23231;52.358;4.926;2023-10-31T10:38:39;5.50;;;2.03;;
37349;SDS011;23231;52.358;4.926;2023-10-31T10:43:40;5.90;;;1.90;;
37349;SDS011;23231;52.358;4.926;2023-10-31T10:48:40;3.65;;;1.55;;
37349;SDS011;23231;52.358;4.926;2023-10-31T10:53:48;5.20;;;1.50;;
37349;SDS011;23231;52.358;4.926;2023-10-31T10:58:51;7.03;;;1.73;;
37349;SDS011;23231;52.358;4.926;2023-10-31T11:03:55;5.88;;;1.52;;
37349;SDS011;23231;52.358;4.926;2023-10-31T11:08:55;4.75;;;1.67;;
37349;SDS011;23231;52.358;4.926;2023-10-31T11:13:56;4.53;;;1.67;;
37349;SDS011;23231;52.358;4.926;2023-10-31T11:18:57;5.43;;;1.10;;
37349;SDS011;23231;52.358;4.926;2023-10-31T11:23:58;4.85;;;1.00;;
37349;SDS011;23231;52.358;4.926;2023-10-31T11:29:06;3.67;;;0.85;;
37349;SDS011;23231;52.358;4.926;2023-10-31T11:34:08;4.43;;;0.73;;
37349;SDS011;23231;52.358;4.926;2023-10-31T11:39:14;3.55;;;1.10;;
37349;SDS011;23231;52.358;4.926;2023-10-31T11:44:15;3.47;;;1.17;;
37349;SDS011;23231;52.358;4.926;2023-10-31T11:49:16;5.82;;;1.20;;
37349;SDS011;23231;52.358;4.926;2023-10-31T11:54:16;5.05;;;1.48;;
37349;SDS011;23231;52.358;4.926;2023-10-31T11:59:17;2.90;;;0.90;;
37349;SDS011;23231;52.358;4.926;2023-10-31T12:04:22;4.00;;;0.85;;
37349;SDS011;23231;52.358;4.926;2023-10-31T12:09:24;4.25;;;1.13;;
37349;SDS011;23231;52.358;4.926;2023-10-31T12:14:32;5.10;;;1.65;;
37349;SDS011;23231;52.358;4.926;2023-10-31T12:19:33;4.25;;;1.30;;
37349;SDS011;23231;52.358;4.926;2023-10-31T12:24:40;4.67;;;1.30;;
37349;SDS011;23231;52.358;4.926;2023-10-31T12:29:44;5.07;;;1.50;;
37349;SDS011;23231;52.358;4.926;2023-10-31T12:35:03;4.80;;;1.33;;
37349;SDS011;23231;52.358;4.926;2023-10-31T12:40:29;4.50;;;1.42;;
37349;SDS011;23231;52.358;4.926;2023-10-31T12:45:34;5.82;;;1.60;;
37349;SDS011;23231;52.358;4.926;2023-10-31T12:55:45;4.30;;;1.60;;
37349;SDS011;23231;52.358;4.926;2023-10-31T13:00:55;7.10;;;2.30;;
37349;SDS011;23231;52.358;4.926;2023-10-31T13:06:23;10.23;;;3.75;;
37349;SDS011;23231;52.358;4.926;2023-10-31T13:11:32;9.75;;;3.75;;
37349;SDS011;23231;52.358;4.926;2023-10-31T13:16:45;13.52;;;4.68;;
37349;SDS011;23231;52.358;4.926;2023-10-31T13:21:51;9.50;;;3.85;;
37349;SDS011;23231;52.358;4.926;2023-10-31T13:26:59;9.10;;;2.00;;
37349;SDS011;23231;52.358;4.926;2023-10-31T13:32:03;8.80;;;1.60;;
37349;SDS011;23231;52.358;4.926;2023-10-31T13:37:12;8.32;;;1.50;;
37349;SDS011;23231;52.358;4.926;2023-10-31T13:42:16;6.82;;;1.88;;
37349;SDS011;23231;52.358;4.926;2023-10-31T13:47:22;5.93;;;1.77;;
37349;SDS011;23231;52.358;4.926;2023-10-31T13:52:36;6.55;;;2.42;;
37349;SDS011;23231;52.358;4.926;2023-10-31T13:57:47;9.68;;;4.70;;
37349;SDS011;23231;52.358;4.926;2023-10-31T14:02:57;14.40;;;4.82;;
37349;SDS011;23231;52.358;4.926;2023-10-31T14:08:06;14.32;;;6.93;;
37349;SDS011;23231;52.358;4.926;2023-10-31T14:13:16;10.55;;;5.75;;
37349;SDS011;23231;52.358;4.926;2023-10-31T14:18:49;8.20;;;3.58;;
37349;SDS011;23231;52.358;4.926;2023-10-31T14:23:59;11.88;;;3.58;;
37349;SDS011;23231;52.358;4.926;2023-10-31T14:29:06;11.55;;;3.35;;
37349;SDS011;23231;52.358;4.926;2023-10-31T14:34:12;8.07;;;2.75;;
37349;SDS011;23231;52.358;4.926;2023-10-31T14:39:41;11.50;;;3.10;;
37349;SDS011;23231;52.358;4.926;2023-10-31T14:44:45;11.38;;;3.47;;
37349;SDS011;23231;52.358;4.926;2023-10-31T14:49:50;13.05;;;3.97;;
37349;SDS011;23231;52.358;4.926;2023-10-31T14:54:57;6.93;;;3.55;;
37349;SDS011;23231;52.358;4.926;2023-10-31T15:00:09;13.68;;;4.68;;
37349;SDS011;23231;52.358;4.926;2023-10-31T15:05:30;14.40;;;5.05;;
37349;SDS011;23231;52.358;4.926;2023-10-31T15:10:40;8.30;;;3.00;;
37349;SDS011;23231;52.358;4.926;2023-10-31T15:16:10;9.00;;;3.60;;
37349;SDS011;23231;52.358;4.926;2023-10-31T15:21:18;7.20;;;3.42;;
37349;SDS011;23231;52.358;4.926;2023-10-31T15:26:30;6.97;;;2.70;;
37349;SDS011;23231;52.358;4.926;2023-10-31T15:31:55;6.10;;;3.00;;
37349;SDS011;23231;52.358;4.926;2023-10-31T15:37:11;13.05;;;4.07;;
37349;SDS011;23231;52.358;4.926;2023-10-31T15:42:24;8.57;;;3.83;;
37349;SDS011;23231;52.358;4.926;2023-10-31T15:47:36;6.45;;;2.70;;
37349;SDS011;23231;52.358;4.926;2023-10-31T15:52:40;10.55;;;3.15;;
37349;SDS011;23231;52.358;4.926;2023-10-31T15:57:58;7.20;;;3.80;;
37349;SDS011;23231;52.358;4.926;2023-10-31T16:03:09;9.02;;;3.22;;
37349;SDS011;23231;52.358;4.926;2023-10-31T16:08:21;7.10;;;3.50;;
37349;SDS011;23231;52.358;4.926;2023-10-31T16:13:26;9.48;;;4.15;;
37349;SDS011;23231;52.358;4.926;2023-10-31T16:18:35;10.88;;;3.65;;
37349;SDS011;23231;52.358;4.926;2023-10-31T16:23:38;9.25;;;4.35;;
37349;SDS011;23231;52.358;4.926;2023-10-31T16:29:00;8.45;;;4.10;;
37349;SDS011;23231;52.358;4.926;2023-10-31T16:34:06;19.58;;;7.97;;
37349;SDS011;23231;52.358;4.926;2023-10-31T16:39:27;15.80;;;7.25;;
37349;SDS011;23231;52.358;4.926;2023-10-31T16:44:38;19.73;;;9.65;;
37349;SDS011;23231;52.358;4.926;2023-10-31T16:49:44;28.92;;;13.57;;
37349;SDS011;23231;52.358;4.926;2023-10-31T16:54:50;31.98;;;14.82;;
37349;SDS011;23231;52.358;4.926;2023-10-31T16:59:56;42.25;;;17.10;;
37349;SDS011;23231;52.358;4.926;2023-10-31T17:05:00;39.67;;;15.87;;
37349;SDS011;23231;52.358;4.926;2023-10-31T17:10:11;46.67;;;17.58;;
37349;SDS011;23231;52.358;4.926;2023-10-31T17:15:18;32.08;;;14.75;;
37349;SDS011;23231;52.358;4.926;2023-10-31T17:20:19;27.88;;;13.20;;
37349;SDS011;23231;52.358;4.926;2023-10-31T17:25:24;30.73;;;14.63;;
37349;SDS011;23231;52.358;4.926;2023-10-31T17:30:35;28.30;;;13.30;;
37349;SDS011;23231;52.358;4.926;2023-10-31T17:35:45;32.97;;;14.77;;
37349;SDS011;23231;52.358;4.926;2023-10-31T17:40:52;33.00;;;14.82;;
37349;SDS011;23231;52.358;4.926;2023-10-31T17:46:02;45.55;;;16.77;;
37349;SDS011;23231;52.358;4.926;2023-10-31T17:51:22;34.22;;;14.95;;
37349;SDS011;23231;52.358;4.926;2023-10-31T17:56:31;44.22;;;16.42;;
37349;SDS011;23231;52.358;4.926;2023-10-31T18:01:39;46.15;;;16.88;;
37349;SDS011;23231;52.358;4.926;2023-10-31T18:06:41;32.78;;;16.08;;
37349;SDS011;23231;52.358;4.926;2023-10-31T18:11:52;37.05;;;15.88;;
37349;SDS011;23231;52.358;4.926;2023-10-31T18:16:57;44.85;;;17.77;;
37349;SDS011;23231;52.358;4.926;2023-10-31T18:22:01;49.97;;;17.13;;
37349;SDS011;23231;52.358;4.926;2023-10-31T18:27:07;34.33;;;15.23;;
37349;SDS011;23231;52.358;4.926;2023-10-31T18:32:12;42.53;;;16.42;;
37349;SDS011;23231;52.358;4.926;2023-10-31T18:37:14;37.10;;;16.77;;
37349;SDS011;23231;52.358;4.926;2023-10-31T18:42:14;47.08;;;18.27;;
37349;SDS011;23231;52.358;4.926;2023-10-31T18:47:15;38.60;;;17.55;;
37349;SDS011;23231;52.358;4.926;2023-10-31T18:52:16;35.28;;;17.58;;
37349;SDS011;23231;52.358;4.926;2023-10-31T18:57:16;39.88;;;18.85;;
37349;SDS011;23231;52.358;4.926;2023-10-31T19:02:17;47.97;;;19.08;;
37349;SDS011;23231;52.358;4.926;2023-10-31T19:07:17;40.15;;;18.33;;
37349;SDS011;23231;52.358;4.926;2023-10-31T19:12:17;42.28;;;18.58;;
37349;SDS011;23231;52.358;4.926;2023-10-31T19:17:18;41.58;;;19.20;;
37349;SDS011;23231;52.358;4.926;2023-10-31T19:22:18;38.30;;;19.33;;
37349;SDS011;23231;52.358;4.926;2023-10-31T19:27:19;39.42;;;18.83;;
37349;SDS011;23231;52.358;4.926;2023-10-31T19:32:19;42.40;;;19.48;;
37349;SDS011;23231;52.358;4.926;2023-10-31T19:37:19;53.60;;;21.75;;
37349;SDS011;23231;52.358;4.926;2023-10-31T19:42:20;66.18;;;23.17;;
37349;SDS011;23231;52.358;4.926;2023-10-31T19:47:20;43.53;;;20.55;;
37349;SDS011;23231;52.358;4.926;2023-10-31T19:52:20;41.28;;;21.08;;
37349;SDS011;23231;52.358;4.926;2023-10-31T19:57:21;42.05;;;21.42;;
37349;SDS011;23231;52.358;4.926;2023-10-31T20:02:22;54.63;;;22.85;;
37349;SDS011;23231;52.358;4.926;2023-10-31T20:07:22;41.40;;;19.98;;
37349;SDS011;23231;52.358;4.926;2023-10-31T20:12:22;48.30;;;22.10;;
37349;SDS011;23231;52.358;4.926;2023-10-31T20:17:23;48.40;;;22.00;;
37349;SDS011;23231;52.358;4.926;2023-10-31T20:22:23;48.28;;;21.67;;
37349;SDS011;23231;52.358;4.926;2023-10-31T20:27:24;42.65;;;20.20;;
37349;SDS011;23231;52.358;4.926;2023-10-31T20:32:24;42.55;;;21.65;;
37349;SDS011;23231;52.358;4.926;2023-10-31T20:37:25;41.70;;;20.70;;
37349;SDS011;23231;52.358;4.926;2023-10-31T20:42:25;34.00;;;18.08;;
37349;SDS011;23231;52.358;4.926;2023-10-31T20:47:26;41.88;;;17.33;;
37349;SDS011;23231;52.358;4.926;2023-10-31T20:52:26;22.98;;;12.25;;
37349;SDS011;23231;52.358;4.926;2023-10-31T20:57:26;22.00;;;10.77;;
37349;SDS011;23231;52.358;4.926;2023-10-31T21:02:27;16.83;;;8.90;;
37349;SDS011;23231;52.358;4.926;2023-10-31T21:07:27;11.30;;;6.40;;
37349;SDS011;23231;52.358;4.926;2023-10-31T21:12:28;6.75;;;3.80;;
37349;SDS011;23231;52.358;4.926;2023-10-31T21:17:32;6.72;;;3.13;;
37349;SDS011;23231;52.358;4.926;2023-10-31T21:22:33;5.45;;;2.55;;
37349;SDS011;23231;52.358;4.926;2023-10-31T21:27:33;6.13;;;2.40;;
37349;SDS011;23231;52.358;4.926;2023-10-31T21:32:33;6.97;;;3.28;;
37349;SDS011;23231;52.358;4.926;2023-10-31T21:37:35;5.03;;;2.42;;
37349;SDS011;23231;52.358;4.926;2023-10-31T21:42:35;4.93;;;2.30;;
37349;SDS011;23231;52.358;4.926;2023-10-31T21:47:35;5.95;;;2.80;;
37349;SDS011;23231;52.358;4.926;2023-10-31T21:52:36;6.85;;;3.60;;
37349;SDS011;23231;52.358;4.926;2023-10-31T21:57:36;4.10;;;2.17;;
37349;SDS011;23231;52.358;4.926;2023-10-31T22:02:37;4.88;;;2.33;;
37349;SDS011;23231;52.358;4.926;2023-10-31T22:07:37;5.82;;;2.70;;
37349;SDS011;23231;52.358;4.926;2023-10-31T22:12:37;4.95;;;2.15;;
37349;SDS011;23231;52.358;4.926;2023-10-31T22:17:38;5.43;;;2.65;;
37349;SDS011;23231;52.358;4.926;2023-10-31T22:22:39;11.32;;;4.50;;
37349;SDS011;23231;52.358;4.926;2023-10-31T22:27:39;10.35;;;5.32;;
37349;SDS011;23231;52.358;4.926;2023-10-31T22:32:39;13.75;;;6.47;;
37349;SDS011;23231;52.358;4.926;2023-10-31T22:37:40;14.15;;;7.03;;
37349;SDS011;23231;52.358;4.926;2023-10-31T22:42:40;17.55;;;8.13;;
37349;SDS011;23231;52.358;4.926;2023-10-31T22:47:41;21.90;;;11.00;;
37349;SDS011;23231;52.358;4.926;2023-10-31T22:52:41;18.90;;;9.70;;
37349;SDS011;23231;52.358;4.926;2023-10-31T22:57:41;13.25;;;7.28;;
37349;SDS011;23231;52.358;4.926;2023-10-31T23:02:42;6.63;;;2.80;;
37349;SDS011;23231;52.358;4.926;2023-10-31T23:07:42;7.80;;;4.32;;
37349;SDS011;23231;52.358;4.926;2023-10-31T23:12:43;11.38;;;5.72;;
37349;SDS011;23231;52.358;4.926;2023-10-31T23:17:44;15.23;;;7.18;;
37349;SDS011;23231;52.358;4.926;2023-10-31T23:22:45;16.80;;;7.43;;
37349;SDS011;23231;52.358;4.926;2023-10-31T23:27:46;13.75;;;6.13;;
37349;SDS011;23231;52.358;4.926;2023-10-31T23:32:46;16.40;;;7.25;;
37349;SDS011;23231;52.358;4.926;2023-10-31T23:37:47;11.90;;;5.72;;
37349;SDS011;23231;52.358;4.926;2023-10-31T23:42:47;17.60;;;6.68;;
37349;SDS011;23231;52.358;4.926;2023-10-31T23:47:48;12.23;;;4.95;;
37349;SDS011;23231;52.358;4.926;2023-10-31T23:52:48;11.02;;;5.20;;
37349;SDS011;23231;52.358;4.926;2023-10-31T23:57:49;11.73;;;5.55;;
